Sidney, Montana
Current Conditions -  °F | °C
As of 4:35 PM on Tuesday 25 Nov 2014 (Local Time) from KSDY Reporting Station
Overcast Overcast  
Wind Chill: 17°   Ceiling: 1500
Heat Index: 30°   Visibility: 10mi
Dew Point: 25°   Wind: 22mph
Humidity: 80%   Direction: 340°NNW
Pressure: 29.93"   Gusts: 28mph
Location:  47.71°N, 104.16°W
Report Text: KSDY 252335Z AUTO 34019G24KT 10SM BKN015 OVC038 M01/M04 A2993 RMK AO1
Loading
Personal Weather Stations






























Interactive Weather Map New forecast layout! Learn more

10-Day Weather Forecast

Advertisements
Track Severe Weather on mobile